sensor_id;sensor_type;location;lat;lon;timestamp;P1;durP1;ratioP1;P2;durP2;ratioP2
47299;SDS011;33036;51.320;17.234;2022-08-16T00:00:43;14.40;;;9.35;;
47299;SDS011;33036;51.320;17.234;2022-08-16T00:04:45;12.63;;;10.07;;
47299;SDS011;33036;51.320;17.234;2022-08-16T00:08:46;12.35;;;8.85;;
47299;SDS011;33036;51.320;17.234;2022-08-16T00:12:47;11.07;;;9.27;;
47299;SDS011;33036;51.320;17.234;2022-08-16T00:16:48;15.32;;;9.18;;
47299;SDS011;33036;51.320;17.234;2022-08-16T00:20:49;11.77;;;8.77;;
47299;SDS011;33036;51.320;17.234;2022-08-16T00:24:51;13.75;;;8.80;;
47299;SDS011;33036;51.320;17.234;2022-08-16T00:28:53;12.18;;;9.07;;
47299;SDS011;33036;51.320;17.234;2022-08-16T00:32:55;12.80;;;8.63;;
47299;SDS011;33036;51.320;17.234;2022-08-16T00:36:57;11.85;;;9.60;;
47299;SDS011;33036;51.320;17.234;2022-08-16T00:40:59;13.40;;;10.15;;
47299;SDS011;33036;51.320;17.234;2022-08-16T00:45:08;21.60;;;10.23;;
47299;SDS011;33036;51.320;17.234;2022-08-16T00:49:32;16.10;;;9.68;;
47299;SDS011;33036;51.320;17.234;2022-08-16T00:53:34;15.30;;;9.52;;
47299;SDS011;33036;51.320;17.234;2022-08-16T00:57:35;10.50;;;8.30;;
47299;SDS011;33036;51.320;17.234;2022-08-16T01:01:37;14.05;;;9.15;;
47299;SDS011;33036;51.320;17.234;2022-08-16T01:05:39;17.17;;;9.70;;
47299;SDS011;33036;51.320;17.234;2022-08-16T01:09:41;15.85;;;9.85;;
47299;SDS011;33036;51.320;17.234;2022-08-16T01:13:44;13.60;;;9.05;;
47299;SDS011;33036;51.320;17.234;2022-08-16T01:17:46;12.07;;;9.18;;
47299;SDS011;33036;51.320;17.234;2022-08-16T01:21:52;14.10;;;9.18;;
47299;SDS011;33036;51.320;17.234;2022-08-16T01:25:57;19.05;;;8.80;;
47299;SDS011;33036;51.320;17.234;2022-08-16T01:38:20;12.05;;;9.35;;
47299;SDS011;33036;51.320;17.234;2022-08-16T01:42:23;15.95;;;9.52;;
47299;SDS011;33036;51.320;17.234;2022-08-16T01:46:29;15.13;;;9.00;;
47299;SDS011;33036;51.320;17.234;2022-08-16T01:50:32;13.50;;;9.57;;
47299;SDS011;33036;51.320;17.234;2022-08-16T01:54:34;15.05;;;9.10;;
47299;SDS011;33036;51.320;17.234;2022-08-16T01:58:35;12.60;;;9.05;;
47299;SDS011;33036;51.320;17.234;2022-08-16T02:02:36;13.63;;;9.00;;
47299;SDS011;33036;51.320;17.234;2022-08-16T02:06:37;17.42;;;9.93;;
47299;SDS011;33036;51.320;17.234;2022-08-16T02:10:40;12.88;;;8.68;;
47299;SDS011;33036;51.320;17.234;2022-08-16T02:14:41;13.80;;;9.55;;
47299;SDS011;33036;51.320;17.234;2022-08-16T02:18:43;13.60;;;10.07;;
47299;SDS011;33036;51.320;17.234;2022-08-16T02:22:44;15.88;;;10.18;;
47299;SDS011;33036;51.320;17.234;2022-08-16T02:26:45;19.67;;;11.63;;
47299;SDS011;33036;51.320;17.234;2022-08-16T02:30:46;13.18;;;10.38;;
47299;SDS011;33036;51.320;17.234;2022-08-16T02:34:47;13.98;;;10.75;;
47299;SDS011;33036;51.320;17.234;2022-08-16T02:38:48;15.45;;;11.38;;
47299;SDS011;33036;51.320;17.234;2022-08-16T02:42:49;15.70;;;11.43;;
47299;SDS011;33036;51.320;17.234;2022-08-16T02:46:50;19.40;;;11.85;;
47299;SDS011;33036;51.320;17.234;2022-08-16T02:50:51;19.20;;;11.45;;
47299;SDS011;33036;51.320;17.234;2022-08-16T02:54:52;17.80;;;12.02;;
47299;SDS011;33036;51.320;17.234;2022-08-16T02:58:54;19.48;;;12.23;;
47299;SDS011;33036;51.320;17.234;2022-08-16T03:02:55;22.60;;;12.15;;
47299;SDS011;33036;51.320;17.234;2022-08-16T03:06:56;19.60;;;12.40;;
47299;SDS011;33036;51.320;17.234;2022-08-16T03:10:57;19.80;;;12.63;;
47299;SDS011;33036;51.320;17.234;2022-08-16T03:14:58;17.63;;;12.73;;
47299;SDS011;33036;51.320;17.234;2022-08-16T03:18:59;18.23;;;12.52;;
47299;SDS011;33036;51.320;17.234;2022-08-16T03:23:00;16.42;;;11.98;;
47299;SDS011;33036;51.320;17.234;2022-08-16T03:27:02;18.75;;;12.88;;
47299;SDS011;33036;51.320;17.234;2022-08-16T03:31:03;21.23;;;13.38;;
47299;SDS011;33036;51.320;17.234;2022-08-16T03:35:07;18.90;;;13.48;;
47299;SDS011;33036;51.320;17.234;2022-08-16T03:39:08;20.52;;;12.60;;
47299;SDS011;33036;51.320;17.234;2022-08-16T03:43:11;18.30;;;13.63;;
47299;SDS011;33036;51.320;17.234;2022-08-16T03:47:12;18.30;;;13.13;;
47299;SDS011;33036;51.320;17.234;2022-08-16T03:51:13;16.48;;;12.70;;
47299;SDS011;33036;51.320;17.234;2022-08-16T03:55:15;17.15;;;13.15;;
47299;SDS011;33036;51.320;17.234;2022-08-16T03:59:15;17.08;;;12.30;;
47299;SDS011;33036;51.320;17.234;2022-08-16T04:03:17;20.75;;;12.88;;
47299;SDS011;33036;51.320;17.234;2022-08-16T04:07:18;14.65;;;12.38;;
47299;SDS011;33036;51.320;17.234;2022-08-16T04:11:19;18.33;;;12.93;;
47299;SDS011;33036;51.320;17.234;2022-08-16T04:15:20;16.90;;;12.63;;
47299;SDS011;33036;51.320;17.234;2022-08-16T04:19:21;24.02;;;13.20;;
47299;SDS011;33036;51.320;17.234;2022-08-16T04:23:25;19.25;;;12.52;;
47299;SDS011;33036;51.320;17.234;2022-08-16T04:27:26;20.30;;;12.48;;
47299;SDS011;33036;51.320;17.234;2022-08-16T04:31:27;17.63;;;11.52;;
47299;SDS011;33036;51.320;17.234;2022-08-16T04:35:28;18.02;;;11.27;;
47299;SDS011;33036;51.320;17.234;2022-08-16T04:39:30;17.67;;;11.68;;
47299;SDS011;33036;51.320;17.234;2022-08-16T04:43:32;21.08;;;11.25;;
47299;SDS011;33036;51.320;17.234;2022-08-16T04:47:37;14.75;;;10.93;;
47299;SDS011;33036;51.320;17.234;2022-08-16T04:51:39;16.67;;;11.15;;
47299;SDS011;33036;51.320;17.234;2022-08-16T04:55:42;17.40;;;11.80;;
47299;SDS011;33036;51.320;17.234;2022-08-16T04:59:44;13.55;;;10.02;;
47299;SDS011;33036;51.320;17.234;2022-08-16T05:03:45;16.58;;;11.32;;
47299;SDS011;33036;51.320;17.234;2022-08-16T05:07:47;15.05;;;10.55;;
47299;SDS011;33036;51.320;17.234;2022-08-16T05:11:48;13.25;;;10.85;;
47299;SDS011;33036;51.320;17.234;2022-08-16T05:15:49;24.10;;;11.90;;
47299;SDS011;33036;51.320;17.234;2022-08-16T05:19:50;15.75;;;10.85;;
47299;SDS011;33036;51.320;17.234;2022-08-16T05:23:51;16.05;;;11.13;;
47299;SDS011;33036;51.320;17.234;2022-08-16T05:27:52;15.02;;;10.32;;
47299;SDS011;33036;51.320;17.234;2022-08-16T05:31:55;14.90;;;10.18;;
47299;SDS011;33036;51.320;17.234;2022-08-16T05:35:56;14.27;;;10.02;;
47299;SDS011;33036;51.320;17.234;2022-08-16T05:39:57;16.50;;;9.75;;
47299;SDS011;33036;51.320;17.234;2022-08-16T05:43:58;14.57;;;9.60;;
47299;SDS011;33036;51.320;17.234;2022-08-16T05:48:02;15.02;;;9.48;;
47299;SDS011;33036;51.320;17.234;2022-08-16T05:52:03;13.32;;;9.30;;
47299;SDS011;33036;51.320;17.234;2022-08-16T05:56:04;13.13;;;9.45;;
47299;SDS011;33036;51.320;17.234;2022-08-16T06:00:06;12.77;;;9.20;;
47299;SDS011;33036;51.320;17.234;2022-08-16T06:04:11;14.45;;;8.75;;
47299;SDS011;33036;51.320;17.234;2022-08-16T06:08:13;14.13;;;9.10;;
47299;SDS011;33036;51.320;17.234;2022-08-16T06:12:14;22.80;;;9.02;;
47299;SDS011;33036;51.320;17.234;2022-08-16T06:16:16;11.85;;;8.48;;
47299;SDS011;33036;51.320;17.234;2022-08-16T06:20:21;10.73;;;8.13;;
47299;SDS011;33036;51.320;17.234;2022-08-16T06:24:24;10.68;;;8.55;;
47299;SDS011;33036;51.320;17.234;2022-08-16T06:28:25;11.90;;;8.88;;
47299;SDS011;33036;51.320;17.234;2022-08-16T06:32:26;11.93;;;8.48;;
47299;SDS011;33036;51.320;17.234;2022-08-16T06:36:27;10.32;;;8.63;;
47299;SDS011;33036;51.320;17.234;2022-08-16T06:40:28;13.75;;;9.13;;
47299;SDS011;33036;51.320;17.234;2022-08-16T06:44:30;10.77;;;8.77;;
47299;SDS011;33036;51.320;17.234;2022-08-16T06:48:31;12.98;;;9.65;;
47299;SDS011;33036;51.320;17.234;2022-08-16T06:52:32;15.45;;;9.40;;
47299;SDS011;33036;51.320;17.234;2022-08-16T06:56:36;11.32;;;9.35;;
47299;SDS011;33036;51.320;17.234;2022-08-16T07:00:37;13.82;;;9.40;;
47299;SDS011;33036;51.320;17.234;2022-08-16T07:04:38;14.98;;;9.20;;
47299;SDS011;33036;51.320;17.234;2022-08-16T07:08:41;15.32;;;9.80;;
47299;SDS011;33036;51.320;17.234;2022-08-16T07:12:42;15.60;;;9.73;;
47299;SDS011;33036;51.320;17.234;2022-08-16T07:16:43;15.68;;;9.25;;
47299;SDS011;33036;51.320;17.234;2022-08-16T07:20:44;12.30;;;8.90;;
47299;SDS011;33036;51.320;17.234;2022-08-16T07:24:46;11.82;;;9.35;;
47299;SDS011;33036;51.320;17.234;2022-08-16T07:28:48;11.40;;;9.02;;
47299;SDS011;33036;51.320;17.234;2022-08-16T07:32:49;13.82;;;9.35;;
47299;SDS011;33036;51.320;17.234;2022-08-16T07:36:50;13.35;;;8.90;;
47299;SDS011;33036;51.320;17.234;2022-08-16T07:40:51;13.27;;;8.82;;
47299;SDS011;33036;51.320;17.234;2022-08-16T07:44:52;13.98;;;9.65;;
47299;SDS011;33036;51.320;17.234;2022-08-16T07:48:53;12.20;;;9.57;;
47299;SDS011;33036;51.320;17.234;2022-08-16T07:52:54;13.15;;;9.70;;
47299;SDS011;33036;51.320;17.234;2022-08-16T07:56:55;11.05;;;8.63;;
47299;SDS011;33036;51.320;17.234;2022-08-16T08:00:58;16.23;;;9.10;;
47299;SDS011;33036;51.320;17.234;2022-08-16T08:05:01;12.95;;;9.65;;
47299;SDS011;33036;51.320;17.234;2022-08-16T08:09:02;17.83;;;10.48;;
47299;SDS011;33036;51.320;17.234;2022-08-16T08:13:04;19.65;;;10.02;;
47299;SDS011;33036;51.320;17.234;2022-08-16T08:17:05;16.02;;;10.07;;
47299;SDS011;33036;51.320;17.234;2022-08-16T08:21:09;17.10;;;9.82;;
47299;SDS011;33036;51.320;17.234;2022-08-16T08:25:10;15.48;;;9.90;;
47299;SDS011;33036;51.320;17.234;2022-08-16T08:29:11;15.00;;;10.45;;
47299;SDS011;33036;51.320;17.234;2022-08-16T08:33:12;17.80;;;9.95;;
47299;SDS011;33036;51.320;17.234;2022-08-16T08:37:14;13.68;;;10.43;;
47299;SDS011;33036;51.320;17.234;2022-08-16T08:41:15;12.75;;;9.38;;
47299;SDS011;33036;51.320;17.234;2022-08-16T08:45:16;12.43;;;9.95;;
47299;SDS011;33036;51.320;17.234;2022-08-16T08:49:17;22.25;;;9.80;;
47299;SDS011;33036;51.320;17.234;2022-08-16T08:53:19;15.38;;;9.60;;
47299;SDS011;33036;51.320;17.234;2022-08-16T08:57:20;14.45;;;10.65;;
47299;SDS011;33036;51.320;17.234;2022-08-16T09:01:26;11.50;;;9.70;;
47299;SDS011;33036;51.320;17.234;2022-08-16T09:09:30;13.63;;;10.23;;
47299;SDS011;33036;51.320;17.234;2022-08-16T09:13:31;13.93;;;10.43;;
47299;SDS011;33036;51.320;17.234;2022-08-16T09:17:33;14.68;;;9.98;;
47299;SDS011;33036;51.320;17.234;2022-08-16T09:21:33;14.57;;;10.02;;
47299;SDS011;33036;51.320;17.234;2022-08-16T09:25:37;18.20;;;9.55;;
47299;SDS011;33036;51.320;17.234;2022-08-16T09:29:37;20.00;;;10.00;;
47299;SDS011;33036;51.320;17.234;2022-08-16T09:33:39;14.27;;;9.43;;
47299;SDS011;33036;51.320;17.234;2022-08-16T09:37:41;15.50;;;9.98;;
47299;SDS011;33036;51.320;17.234;2022-08-16T09:41:43;14.38;;;9.23;;
47299;SDS011;33036;51.320;17.234;2022-08-16T09:45:45;11.48;;;8.27;;
47299;SDS011;33036;51.320;17.234;2022-08-16T09:49:46;14.73;;;8.95;;
47299;SDS011;33036;51.320;17.234;2022-08-16T09:53:47;12.25;;;8.85;;
47299;SDS011;33036;51.320;17.234;2022-08-16T09:57:49;12.93;;;9.23;;
47299;SDS011;33036;51.320;17.234;2022-08-16T10:01:51;16.60;;;9.05;;
47299;SDS011;33036;51.320;17.234;2022-08-16T10:05:52;15.25;;;9.48;;
47299;SDS011;33036;51.320;17.234;2022-08-16T10:09:53;13.05;;;9.25;;
47299;SDS011;33036;51.320;17.234;2022-08-16T10:13:54;12.35;;;8.88;;
47299;SDS011;33036;51.320;17.234;2022-08-16T10:17:55;12.63;;;9.02;;
47299;SDS011;33036;51.320;17.234;2022-08-16T10:21:56;10.23;;;9.13;;
47299;SDS011;33036;51.320;17.234;2022-08-16T10:25:57;14.20;;;8.50;;
47299;SDS011;33036;51.320;17.234;2022-08-16T10:29:58;12.93;;;9.10;;
47299;SDS011;33036;51.320;17.234;2022-08-16T10:33:59;11.60;;;9.18;;
47299;SDS011;33036;51.320;17.234;2022-08-16T10:38:01;15.50;;;8.85;;
47299;SDS011;33036;51.320;17.234;2022-08-16T10:42:02;12.98;;;9.50;;
47299;SDS011;33036;51.320;17.234;2022-08-16T10:46:04;12.65;;;9.55;;
47299;SDS011;33036;51.320;17.234;2022-08-16T10:50:07;11.80;;;9.55;;
47299;SDS011;33036;51.320;17.234;2022-08-16T10:54:08;13.80;;;8.70;;
47299;SDS011;33036;51.320;17.234;2022-08-16T10:58:11;11.45;;;9.10;;
47299;SDS011;33036;51.320;17.234;2022-08-16T11:02:13;13.32;;;8.82;;
47299;SDS011;33036;51.320;17.234;2022-08-16T11:06:14;12.35;;;8.13;;
47299;SDS011;33036;51.320;17.234;2022-08-16T11:10:17;14.13;;;9.57;;
47299;SDS011;33036;51.320;17.234;2022-08-16T11:14:20;15.93;;;8.43;;
47299;SDS011;33036;51.320;17.234;2022-08-16T11:18:21;10.95;;;7.70;;
47299;SDS011;33036;51.320;17.234;2022-08-16T11:22:22;14.00;;;9.07;;
47299;SDS011;33036;51.320;17.234;2022-08-16T11:26:23;10.82;;;8.15;;
47299;SDS011;33036;51.320;17.234;2022-08-16T11:30:25;10.35;;;7.78;;
47299;SDS011;33036;51.320;17.234;2022-08-16T11:34:27;11.23;;;8.60;;
47299;SDS011;33036;51.320;17.234;2022-08-16T11:38:28;10.73;;;7.80;;
47299;SDS011;33036;51.320;17.234;2022-08-16T11:42:29;8.95;;;7.68;;
47299;SDS011;33036;51.320;17.234;2022-08-16T11:46:30;13.82;;;8.77;;
47299;SDS011;33036;51.320;17.234;2022-08-16T11:50:34;9.48;;;7.63;;
47299;SDS011;33036;51.320;17.234;2022-08-16T11:54:35;11.98;;;7.43;;
47299;SDS011;33036;51.320;17.234;2022-08-16T11:58:36;9.20;;;7.78;;
47299;SDS011;33036;51.320;17.234;2022-08-16T12:02:38;11.88;;;7.97;;
47299;SDS011;33036;51.320;17.234;2022-08-16T12:06:42;9.68;;;7.85;;
47299;SDS011;33036;51.320;17.234;2022-08-16T12:10:43;10.98;;;7.65;;
47299;SDS011;33036;51.320;17.234;2022-08-16T12:14:47;15.02;;;7.85;;
47299;SDS011;33036;51.320;17.234;2022-08-16T12:18:47;11.68;;;7.50;;
47299;SDS011;33036;51.320;17.234;2022-08-16T12:22:49;13.32;;;7.95;;
47299;SDS011;33036;51.320;17.234;2022-08-16T12:26:51;11.05;;;7.47;;
47299;SDS011;33036;51.320;17.234;2022-08-16T12:30:53;10.95;;;7.32;;
47299;SDS011;33036;51.320;17.234;2022-08-16T12:34:54;8.40;;;7.22;;
47299;SDS011;33036;51.320;17.234;2022-08-16T12:38:55;12.23;;;6.70;;
47299;SDS011;33036;51.320;17.234;2022-08-16T12:42:57;8.07;;;6.85;;
47299;SDS011;33036;51.320;17.234;2022-08-16T12:47:00;9.23;;;7.07;;
47299;SDS011;33036;51.320;17.234;2022-08-16T12:51:21;10.07;;;7.03;;
47299;SDS011;33036;51.320;17.234;2022-08-16T12:55:23;17.15;;;7.50;;
47299;SDS011;33036;51.320;17.234;2022-08-16T12:59:24;9.50;;;6.28;;
47299;SDS011;33036;51.320;17.234;2022-08-16T13:03:26;7.50;;;6.28;;
47299;SDS011;33036;51.320;17.234;2022-08-16T13:07:28;10.98;;;7.25;;
47299;SDS011;33036;51.320;17.234;2022-08-16T13:11:33;10.85;;;7.03;;
47299;SDS011;33036;51.320;17.234;2022-08-16T13:15:40;10.93;;;7.10;;
47299;SDS011;33036;51.320;17.234;2022-08-16T13:19:41;9.57;;;6.82;;
47299;SDS011;33036;51.320;17.234;2022-08-16T13:23:42;8.15;;;6.30;;
47299;SDS011;33036;51.320;17.234;2022-08-16T13:27:43;11.52;;;6.63;;
47299;SDS011;33036;51.320;17.234;2022-08-16T13:31:44;8.10;;;6.88;;
47299;SDS011;33036;51.320;17.234;2022-08-16T13:35:46;8.52;;;6.82;;
47299;SDS011;33036;51.320;17.234;2022-08-16T13:39:49;9.38;;;6.45;;
47299;SDS011;33036;51.320;17.234;2022-08-16T13:43:50;7.38;;;6.10;;
47299;SDS011;33036;51.320;17.234;2022-08-16T13:47:51;8.23;;;6.20;;
47299;SDS011;33036;51.320;17.234;2022-08-16T13:51:53;8.77;;;6.30;;
47299;SDS011;33036;51.320;17.234;2022-08-16T13:55:54;7.18;;;6.25;;
47299;SDS011;33036;51.320;17.234;2022-08-16T13:59:56;9.32;;;5.47;;
47299;SDS011;33036;51.320;17.234;2022-08-16T14:03:56;10.88;;;6.28;;
47299;SDS011;33036;51.320;17.234;2022-08-16T14:07:58;10.35;;;5.85;;
47299;SDS011;33036;51.320;17.234;2022-08-16T14:11:59;9.77;;;5.03;;
47299;SDS011;33036;51.320;17.234;2022-08-16T14:16:01;6.35;;;4.93;;
47299;SDS011;33036;51.320;17.234;2022-08-16T14:20:03;8.35;;;5.50;;
47299;SDS011;33036;51.320;17.234;2022-08-16T14:24:05;8.27;;;5.82;;
47299;SDS011;33036;51.320;17.234;2022-08-16T14:28:06;7.90;;;5.03;;
47299;SDS011;33036;51.320;17.234;2022-08-16T14:32:08;7.55;;;4.40;;
47299;SDS011;33036;51.320;17.234;2022-08-16T14:36:09;7.68;;;4.75;;
47299;SDS011;33036;51.320;17.234;2022-08-16T14:40:11;6.55;;;4.50;;
47299;SDS011;33036;51.320;17.234;2022-08-16T14:44:14;4.78;;;4.38;;
47299;SDS011;33036;51.320;17.234;2022-08-16T14:48:15;9.82;;;4.63;;
47299;SDS011;33036;51.320;17.234;2022-08-16T14:52:17;6.10;;;4.75;;
47299;SDS011;33036;51.320;17.234;2022-08-16T14:56:20;7.30;;;4.05;;
47299;SDS011;33036;51.320;17.234;2022-08-16T15:00:21;5.80;;;4.43;;
47299;SDS011;33036;51.320;17.234;2022-08-16T15:04:24;7.20;;;4.22;;
47299;SDS011;33036;51.320;17.234;2022-08-16T15:08:25;6.47;;;4.53;;
47299;SDS011;33036;51.320;17.234;2022-08-16T15:12:26;12.15;;;4.93;;
47299;SDS011;33036;51.320;17.234;2022-08-16T15:16:28;6.32;;;4.32;;
47299;SDS011;33036;51.320;17.234;2022-08-16T15:20:30;7.63;;;4.40;;
47299;SDS011;33036;51.320;17.234;2022-08-16T15:24:32;6.75;;;4.10;;
47299;SDS011;33036;51.320;17.234;2022-08-16T15:28:33;6.45;;;4.13;;
47299;SDS011;33036;51.320;17.234;2022-08-16T15:32:36;6.63;;;4.05;;
47299;SDS011;33036;51.320;17.234;2022-08-16T15:36:38;5.35;;;4.00;;
47299;SDS011;33036;51.320;17.234;2022-08-16T15:40:39;10.55;;;4.63;;
47299;SDS011;33036;51.320;17.234;2022-08-16T15:44:40;4.88;;;3.90;;
47299;SDS011;33036;51.320;17.234;2022-08-16T15:48:42;6.93;;;4.57;;
47299;SDS011;33036;51.320;17.234;2022-08-16T15:52:43;7.57;;;4.15;;
47299;SDS011;33036;51.320;17.234;2022-08-16T15:56:44;4.93;;;4.30;;
47299;SDS011;33036;51.320;17.234;2022-08-16T16:00:46;8.05;;;4.70;;
47299;SDS011;33036;51.320;17.234;2022-08-16T16:04:46;8.90;;;4.95;;
47299;SDS011;33036;51.320;17.234;2022-08-16T16:08:47;9.50;;;4.65;;
47299;SDS011;33036;51.320;17.234;2022-08-16T16:12:52;7.90;;;5.15;;
47299;SDS011;33036;51.320;17.234;2022-08-16T16:16:54;7.13;;;5.47;;
47299;SDS011;33036;51.320;17.234;2022-08-16T16:20:58;8.13;;;4.70;;
47299;SDS011;33036;51.320;17.234;2022-08-16T16:25:01;12.02;;;4.45;;
47299;SDS011;33036;51.320;17.234;2022-08-16T16:29:02;5.90;;;4.82;;
47299;SDS011;33036;51.320;17.234;2022-08-16T16:33:04;7.60;;;4.72;;
47299;SDS011;33036;51.320;17.234;2022-08-16T16:37:05;7.40;;;5.10;;
47299;SDS011;33036;51.320;17.234;2022-08-16T16:41:06;7.15;;;4.88;;
47299;SDS011;33036;51.320;17.234;2022-08-16T16:45:10;10.70;;;5.63;;
47299;SDS011;33036;51.320;17.234;2022-08-16T16:49:12;11.07;;;4.90;;
47299;SDS011;33036;51.320;17.234;2022-08-16T16:53:13;7.03;;;5.00;;
47299;SDS011;33036;51.320;17.234;2022-08-16T16:57:15;7.57;;;4.90;;
47299;SDS011;33036;51.320;17.234;2022-08-16T17:05:39;10.75;;;4.97;;
47299;SDS011;33036;51.320;17.234;2022-08-16T17:09:40;6.47;;;5.13;;
47299;SDS011;33036;51.320;17.234;2022-08-16T17:13:41;13.40;;;5.22;;
47299;SDS011;33036;51.320;17.234;2022-08-16T17:17:43;8.35;;;5.05;;
47299;SDS011;33036;51.320;17.234;2022-08-16T17:21:44;6.75;;;5.43;;
47299;SDS011;33036;51.320;17.234;2022-08-16T17:25:45;6.18;;;5.55;;
47299;SDS011;33036;51.320;17.234;2022-08-16T17:29:46;8.43;;;5.43;;
47299;SDS011;33036;51.320;17.234;2022-08-16T17:33:47;8.10;;;6.07;;
47299;SDS011;33036;51.320;17.234;2022-08-16T17:37:49;7.18;;;5.90;;
47299;SDS011;33036;51.320;17.234;2022-08-16T17:41:50;12.68;;;6.55;;
47299;SDS011;33036;51.320;17.234;2022-08-16T17:45:52;10.98;;;6.13;;
47299;SDS011;33036;51.320;17.234;2022-08-16T17:49:52;7.03;;;5.72;;
47299;SDS011;33036;51.320;17.234;2022-08-16T17:53:54;9.43;;;6.35;;
47299;SDS011;33036;51.320;17.234;2022-08-16T17:57:56;10.35;;;6.85;;
47299;SDS011;33036;51.320;17.234;2022-08-16T18:01:57;9.38;;;7.38;;
47299;SDS011;33036;51.320;17.234;2022-08-16T18:05:58;14.15;;;9.15;;
47299;SDS011;33036;51.320;17.234;2022-08-16T18:09:59;13.43;;;10.60;;
47299;SDS011;33036;51.320;17.234;2022-08-16T18:14:00;20.73;;;10.70;;
47299;SDS011;33036;51.320;17.234;2022-08-16T18:18:01;18.05;;;9.65;;
47299;SDS011;33036;51.320;17.234;2022-08-16T18:22:02;17.42;;;9.38;;
47299;SDS011;33036;51.320;17.234;2022-08-16T18:26:19;10.48;;;7.82;;
47299;SDS011;33036;51.320;17.234;2022-08-16T18:30:19;15.48;;;8.02;;
47299;SDS011;33036;51.320;17.234;2022-08-16T18:34:20;11.27;;;8.07;;
47299;SDS011;33036;51.320;17.234;2022-08-16T18:38:21;9.85;;;7.45;;
47299;SDS011;33036;51.320;17.234;2022-08-16T18:42:22;11.40;;;7.90;;
47299;SDS011;33036;51.320;17.234;2022-08-16T18:46:23;13.95;;;8.63;;
47299;SDS011;33036;51.320;17.234;2022-08-16T18:50:24;13.23;;;8.18;;
47299;SDS011;33036;51.320;17.234;2022-08-16T18:54:26;11.55;;;8.15;;
47299;SDS011;33036;51.320;17.234;2022-08-16T18:58:28;15.00;;;9.27;;
47299;SDS011;33036;51.320;17.234;2022-08-16T19:02:33;11.68;;;9.52;;
47299;SDS011;33036;51.320;17.234;2022-08-16T19:06:36;15.20;;;10.60;;
47299;SDS011;33036;51.320;17.234;2022-08-16T19:10:39;19.73;;;11.90;;
47299;SDS011;33036;51.320;17.234;2022-08-16T19:14:42;23.13;;;12.60;;
47299;SDS011;33036;51.320;17.234;2022-08-16T19:18:44;22.85;;;13.05;;
47299;SDS011;33036;51.320;17.234;2022-08-16T19:22:46;25.88;;;11.60;;
47299;SDS011;33036;51.320;17.234;2022-08-16T19:26:48;21.48;;;12.63;;
47299;SDS011;33036;51.320;17.234;2022-08-16T19:30:49;20.48;;;12.10;;
47299;SDS011;33036;51.320;17.234;2022-08-16T19:34:51;21.10;;;12.05;;
47299;SDS011;33036;51.320;17.234;2022-08-16T19:38:52;14.05;;;10.70;;
47299;SDS011;33036;51.320;17.234;2022-08-16T19:42:53;22.38;;;10.30;;
47299;SDS011;33036;51.320;17.234;2022-08-16T19:46:54;17.00;;;11.02;;
47299;SDS011;33036;51.320;17.234;2022-08-16T19:50:57;15.13;;;10.32;;
47299;SDS011;33036;51.320;17.234;2022-08-16T19:54:59;20.88;;;10.10;;
47299;SDS011;33036;51.320;17.234;2022-08-16T19:59:04;11.73;;;8.90;;
47299;SDS011;33036;51.320;17.234;2022-08-16T20:03:27;10.77;;;8.30;;
47299;SDS011;33036;51.320;17.234;2022-08-16T20:07:28;13.85;;;8.77;;
47299;SDS011;33036;51.320;17.234;2022-08-16T20:11:29;12.20;;;8.48;;
47299;SDS011;33036;51.320;17.234;2022-08-16T20:15:30;12.15;;;8.35;;
47299;SDS011;33036;51.320;17.234;2022-08-16T20:19:32;28.50;;;9.40;;
47299;SDS011;33036;51.320;17.234;2022-08-16T20:23:33;13.07;;;8.23;;
47299;SDS011;33036;51.320;17.234;2022-08-16T20:27:34;12.10;;;8.27;;
47299;SDS011;33036;51.320;17.234;2022-08-16T20:31:35;11.25;;;7.18;;
47299;SDS011;33036;51.320;17.234;2022-08-16T20:35:36;12.95;;;8.00;;
47299;SDS011;33036;51.320;17.234;2022-08-16T20:39:37;9.55;;;7.70;;
47299;SDS011;33036;51.320;17.234;2022-08-16T20:43:39;12.80;;;7.68;;
47299;SDS011;33036;51.320;17.234;2022-08-16T20:47:40;15.05;;;7.75;;
47299;SDS011;33036;51.320;17.234;2022-08-16T20:51:41;10.57;;;7.45;;
47299;SDS011;33036;51.320;17.234;2022-08-16T20:55:43;12.73;;;7.50;;
47299;SDS011;33036;51.320;17.234;2022-08-16T20:59:45;8.70;;;7.25;;
47299;SDS011;33036;51.320;17.234;2022-08-16T21:03:46;12.20;;;7.20;;
47299;SDS011;33036;51.320;17.234;2022-08-16T21:07:47;10.32;;;7.72;;
47299;SDS011;33036;51.320;17.234;2022-08-16T21:11:50;11.27;;;7.75;;
47299;SDS011;33036;51.320;17.234;2022-08-16T21:15:56;12.85;;;8.05;;
47299;SDS011;33036;51.320;17.234;2022-08-16T21:19:58;12.65;;;8.07;;
47299;SDS011;33036;51.320;17.234;2022-08-16T21:23:59;10.15;;;8.07;;
47299;SDS011;33036;51.320;17.234;2022-08-16T21:28:00;12.80;;;8.00;;
47299;SDS011;33036;51.320;17.234;2022-08-16T21:32:08;10.65;;;8.70;;
47299;SDS011;33036;51.320;17.234;2022-08-16T21:36:13;13.82;;;8.57;;
47299;SDS011;33036;51.320;17.234;2022-08-16T21:40:14;10.52;;;7.50;;
47299;SDS011;33036;51.320;17.234;2022-08-16T21:44:15;11.88;;;8.00;;
47299;SDS011;33036;51.320;17.234;2022-08-16T21:48:17;10.85;;;8.05;;
47299;SDS011;33036;51.320;17.234;2022-08-16T21:52:19;10.25;;;7.90;;
47299;SDS011;33036;51.320;17.234;2022-08-16T21:56:24;11.55;;;8.00;;
47299;SDS011;33036;51.320;17.234;2022-08-16T22:00:26;13.18;;;6.97;;
47299;SDS011;33036;51.320;17.234;2022-08-16T22:04:27;9.73;;;6.93;;
47299;SDS011;33036;51.320;17.234;2022-08-16T22:08:28;12.32;;;7.38;;
47299;SDS011;33036;51.320;17.234;2022-08-16T22:12:30;9.30;;;7.25;;
47299;SDS011;33036;51.320;17.234;2022-08-16T22:16:33;10.82;;;7.50;;
47299;SDS011;33036;51.320;17.234;2022-08-16T22:20:35;11.40;;;7.03;;
47299;SDS011;33036;51.320;17.234;2022-08-16T22:24:36;8.85;;;7.13;;
47299;SDS011;33036;51.320;17.234;2022-08-16T22:28:37;9.38;;;7.60;;
47299;SDS011;33036;51.320;17.234;2022-08-16T22:32:39;9.30;;;7.20;;
47299;SDS011;33036;51.320;17.234;2022-08-16T22:36:43;11.50;;;7.68;;
47299;SDS011;33036;51.320;17.234;2022-08-16T22:40:44;14.68;;;7.53;;
47299;SDS011;33036;51.320;17.234;2022-08-16T22:44:46;9.77;;;7.32;;
47299;SDS011;33036;51.320;17.234;2022-08-16T22:48:47;11.52;;;6.88;;
47299;SDS011;33036;51.320;17.234;2022-08-16T22:52:50;10.70;;;6.85;;
47299;SDS011;33036;51.320;17.234;2022-08-16T22:56:51;11.40;;;7.57;;
47299;SDS011;33036;51.320;17.234;2022-08-16T23:00:52;15.48;;;7.60;;
47299;SDS011;33036;51.320;17.234;2022-08-16T23:04:53;9.23;;;7.03;;
47299;SDS011;33036;51.320;17.234;2022-08-16T23:08:54;11.20;;;7.40;;
47299;SDS011;33036;51.320;17.234;2022-08-16T23:12:59;10.90;;;7.18;;
47299;SDS011;33036;51.320;17.234;2022-08-16T23:17:02;12.82;;;7.32;;
47299;SDS011;33036;51.320;17.234;2022-08-16T23:21:05;12.20;;;7.50;;
47299;SDS011;33036;51.320;17.234;2022-08-16T23:25:08;8.70;;;7.15;;
47299;SDS011;33036;51.320;17.234;2022-08-16T23:29:09;11.38;;;7.57;;
47299;SDS011;33036;51.320;17.234;2022-08-16T23:33:11;10.07;;;7.00;;
47299;SDS011;33036;51.320;17.234;2022-08-16T23:37:12;10.18;;;7.35;;
47299;SDS011;33036;51.320;17.234;2022-08-16T23:41:13;11.98;;;7.70;;
47299;SDS011;33036;51.320;17.234;2022-08-16T23:45:15;9.82;;;7.28;;
47299;SDS011;33036;51.320;17.234;2022-08-16T23:49:17;10.98;;;7.30;;